VKG633 LCLK-ESSA
Flight info
| Callsign | VKG633 |
|---|---|
| Flight time | N/A |
| Altitude | 38000 |
| Route | PHA M31 GENOS DCT PEDER DCT TOMBI UA16 AYT UQ23 OSVEL UL619 MAKOL DCT SITNO DCT WRN DCT BALIK DCT ARGES DCT ASNEL DCT EDETA DCT KENIN DCT ROBTU DCT PODAN/N0473F370 M857 OBOSO/N0474F390 M857 EGLON DCT GERVI M857 UNPEG DCT BOKSU DCT KAZLA/N0481F380 DCT MIRMA N616 NEKET DCT TOMBU N616 XILAN |
| Aircraft | A339/H-SDE1E2E3GHIJ1J3J4J7RWXYZ/LB2D1 |
Departure
| Time | 2026-04-27 16:20 |
|---|---|
| Airport | Larnaca International Airport (LCLK) |
Arrival
| Time | N/A |
|---|---|
| Airport | Stockholm-Arlanda Airport (ESSA) |
| Time | Latitude | Longitude | Altitude | Speed | Heading |
|---|---|---|---|---|---|
| 2026-04-27 15:55 | 34.86951 | 33.61149 | 35 ft | 0 kts | 229° |
| 2026-04-27 16:07 | 34.86956 | 33.61155 | 35 ft | 2 kts | 229° |
| 2026-04-27 16:07 | 34.86966 | 33.61169 | 35 ft | 2 kts | 229° |
| 2026-04-27 16:07 | 34.86976 | 33.61183 | 34 ft | 2 kts | 229° |
| 2026-04-27 16:07 | 34.86986 | 33.61197 | 34 ft | 2 kts | 221° |
| 2026-04-27 16:08 | 34.86999 | 33.61206 | 34 ft | 2 kts | 195° |
| 2026-04-27 16:08 | 34.87013 | 33.61208 | 34 ft | 2 kts | 175° |
| 2026-04-27 16:08 | 34.87028 | 33.61204 | 34 ft | 2 kts | 154° |
| 2026-04-27 16:08 | 34.87040 | 33.61195 | 35 ft | 2 kts | 134° |
| 2026-04-27 16:09 | 34.87046 | 33.61187 | 35 ft | 0 kts | 132° |
| 2026-04-27 16:09 | 34.87045 | 33.61187 | 35 ft | 0 kts | 133° |
| 2026-04-27 16:12 | 34.87032 | 33.61204 | 34 ft | 4 kts | 135° |
| 2026-04-27 16:12 | 34.87000 | 33.61243 | 33 ft | 8 kts | 136° |
| 2026-04-27 16:12 | 34.86898 | 33.61369 | 31 ft | 11 kts | 120° |
| 2026-04-27 16:13 | 34.86912 | 33.61466 | 29 ft | 13 kts | 53° |
| 2026-04-27 16:13 | 34.87063 | 33.61655 | 26 ft | 16 kts | 45° |
| 2026-04-27 16:13 | 34.87147 | 33.61758 | 25 ft | 17 kts | 45° |
| 2026-04-27 16:14 | 34.87331 | 33.61980 | 23 ft | 19 kts | 45° |
| 2026-04-27 16:14 | 34.87519 | 33.62209 | 23 ft | 19 kts | 45° |
| 2026-04-27 16:15 | 34.87703 | 33.62432 | 24 ft | 18 kts | 45° |
| 2026-04-27 16:15 | 34.87879 | 33.62651 | 25 ft | 17 kts | 45° |
| 2026-04-27 16:16 | 34.88052 | 33.62863 | 26 ft | 17 kts | 45° |
| 2026-04-27 16:16 | 34.88223 | 33.63072 | 27 ft | 17 kts | 45° |
| 2026-04-27 16:17 | 34.88396 | 33.63280 | 27 ft | 16 kts | 45° |
| 2026-04-27 16:17 | 34.88411 | 33.63438 | 27 ft | 11 kts | 130° |
| 2026-04-27 16:18 | 34.88339 | 33.63562 | 27 ft | 8 kts | 182° |
| 2026-04-27 16:18 | 34.88103 | 33.63285 | 27 ft | 68 kts | 225° |
| 2026-04-27 16:19 | 34.87626 | 33.62706 | 25 ft | 123 kts | 225° |
| 2026-04-27 16:19 | 34.86904 | 33.61828 | 27 ft | 167 kts | 226° |
| 2026-04-27 16:20 | 34.84396 | 33.58607 | 1539 ft | 180 kts | 230° |
| 2026-04-27 16:20 | 34.83526 | 33.57455 | 1963 ft | 192 kts | 230° |
| 2026-04-27 16:20 | 34.81535 | 33.54878 | 2640 ft | 227 kts | 229° |
| 2026-04-27 16:21 | 34.80418 | 33.53443 | 3004 ft | 245 kts | 229° |
| 2026-04-27 16:21 | 34.76579 | 33.48536 | 4607 ft | 280 kts | 228° |
| 2026-04-27 16:22 | 34.75224 | 33.46807 | 5322 ft | 284 kts | 228° |
| 2026-04-27 16:22 | 34.72479 | 33.43305 | 6641 ft | 293 kts | 228° |
| 2026-04-27 16:22 | 34.71064 | 33.41499 | 7319 ft | 296 kts | 228° |
| 2026-04-27 16:23 | 34.69643 | 33.39687 | 7996 ft | 299 kts | 227° |
| 2026-04-27 16:23 | 34.67874 | 33.35305 | 9273 ft | 298 kts | 273° |
| 2026-04-27 16:23 | 34.67974 | 33.32804 | 9914 ft | 300 kts | 277° |
| 2026-04-27 16:24 | 34.68126 | 33.30240 | 10432 ft | 308 kts | 276° |
| 2026-04-27 16:24 | 34.68404 | 33.24804 | 11015 ft | 341 kts | 275° |
| 2026-04-27 16:25 | 34.68654 | 33.18808 | 11557 ft | 372 kts | 275° |
| 2026-04-27 16:25 | 34.68904 | 33.12384 | 12537 ft | 388 kts | 275° |
| 2026-04-27 16:26 | 34.69160 | 33.05780 | 13882 ft | 393 kts | 275° |
| 2026-04-27 16:26 | 34.69414 | 32.99134 | 15136 ft | 399 kts | 275° |
| 2026-04-27 16:27 | 34.69671 | 32.92392 | 16374 ft | 406 kts | 274° |
| 2026-04-27 16:27 | 34.70056 | 32.82052 | 18183 ft | 415 kts | 274° |
| 2026-04-27 16:28 | 34.70313 | 32.74998 | 19313 ft | 422 kts | 274° |
| 2026-04-27 16:28 | 34.70571 | 32.67843 | 20431 ft | 428 kts | 274° |
| 2026-04-27 16:29 | 34.70952 | 32.56954 | 21974 ft | 437 kts | 274° |
| 2026-04-27 16:30 | 34.71083 | 32.49534 | 22925 ft | 443 kts | 270° |
| 2026-04-27 16:30 | 34.70731 | 32.41995 | 23816 ft | 450 kts | 268° |
| 2026-04-27 16:31 | 34.70114 | 32.30584 | 25193 ft | 455 kts | 268° |
| 2026-04-27 16:31 | 34.69701 | 32.22952 | 26049 ft | 458 kts | 268° |
| 2026-04-27 16:32 | 34.69281 | 32.15227 | 26877 ft | 460 kts | 268° |
| 2026-04-27 16:32 | 34.69068 | 32.11349 | 27253 ft | 462 kts | 268° |
| 2026-04-27 16:33 | 34.68640 | 32.03598 | 27992 ft | 465 kts | 268° |
| 2026-04-27 16:33 | 34.68421 | 31.99690 | 28347 ft | 466 kts | 268° |
| 2026-04-27 16:33 | 34.68277 | 31.95759 | 28682 ft | 466 kts | 273° |
| 2026-04-27 16:33 | 34.68608 | 31.91828 | 29050 ft | 465 kts | 282° |
| 2026-04-27 16:34 | 34.69425 | 31.88029 | 29544 ft | 460 kts | 290° |
| 2026-04-27 16:34 | 34.70669 | 31.84480 | 30071 ft | 456 kts | 298° |
| 2026-04-27 16:34 | 34.72209 | 31.81179 | 30529 ft | 453 kts | 301° |
| 2026-04-27 16:34 | 34.73814 | 31.77886 | 30960 ft | 452 kts | 301° |
| 2026-04-27 16:35 | 34.75434 | 31.74585 | 31359 ft | 451 kts | 301° |
| 2026-04-27 16:35 | 34.77032 | 31.71324 | 31751 ft | 450 kts | 301° |
| 2026-04-27 16:35 | 34.80196 | 31.64840 | 32472 ft | 448 kts | 301° |
| 2026-04-27 16:36 | 34.81782 | 31.61576 | 32808 ft | 448 kts | 301° |
| 2026-04-27 16:36 | 34.83367 | 31.58310 | 33145 ft | 447 kts | 301° |
| 2026-04-27 16:36 | 34.84928 | 31.55090 | 33492 ft | 446 kts | 301° |
| 2026-04-27 16:36 | 34.86499 | 31.51843 | 33843 ft | 445 kts | 301° |
| 2026-04-27 16:37 | 34.88074 | 31.48584 | 34173 ft | 444 kts | 300° |
| 2026-04-27 16:37 | 34.89621 | 31.45383 | 34467 ft | 443 kts | 300° |
| 2026-04-27 16:37 | 34.91175 | 31.42160 | 34735 ft | 442 kts | 300° |
| 2026-04-27 16:37 | 34.92727 | 31.38940 | 34994 ft | 441 kts | 300° |
| 2026-04-27 16:38 | 34.94288 | 31.35699 | 35174 ft | 442 kts | 300° |
| 2026-04-27 16:38 | 34.95840 | 31.32474 | 35342 ft | 444 kts | 300° |
| 2026-04-27 16:38 | 34.97380 | 31.29269 | 35564 ft | 444 kts | 300° |
| 2026-04-27 16:38 | 34.98933 | 31.26035 | 35791 ft | 443 kts | 300° |
| 2026-04-27 16:39 | 35.00483 | 31.22802 | 36039 ft | 443 kts | 300° |
| 2026-04-27 16:39 | 35.02032 | 31.19571 | 36303 ft | 442 kts | 300° |
| 2026-04-27 16:39 | 35.03592 | 31.16314 | 36522 ft | 443 kts | 300° |
| 2026-04-27 16:39 | 35.05147 | 31.13064 | 36717 ft | 444 kts | 300° |
| 2026-04-27 16:40 | 35.06694 | 31.09827 | 36932 ft | 444 kts | 300° |
| 2026-04-27 16:40 | 35.08241 | 31.06588 | 37158 ft | 444 kts | 300° |
| 2026-04-27 16:40 | 35.09787 | 31.03346 | 37335 ft | 445 kts | 300° |
| 2026-04-27 16:40 | 35.11351 | 31.00066 | 37487 ft | 446 kts | 300° |
| 2026-04-27 16:41 | 35.13019 | 30.96888 | 37639 ft | 447 kts | 306° |
| 2026-04-27 16:41 | 35.15042 | 30.94020 | 37783 ft | 449 kts | 314° |
| 2026-04-27 16:41 | 35.17400 | 30.91495 | 37909 ft | 452 kts | 321° |
| 2026-04-27 16:42 | 35.22895 | 30.87728 | 37979 ft | 458 kts | 336° |
| 2026-04-27 16:42 | 35.29142 | 30.85956 | 37984 ft | 465 kts | 352° |
| 2026-04-27 16:43 | 35.35607 | 30.85577 | 37986 ft | 466 kts | 355° |
| 2026-04-27 16:43 | 35.42103 | 30.85300 | 37975 ft | 465 kts | 355° |
| 2026-04-27 16:44 | 35.48542 | 30.85015 | 37980 ft | 466 kts | 355° |
| 2026-04-27 16:44 | 35.55018 | 30.84720 | 37973 ft | 466 kts | 355° |
| 2026-04-27 16:45 | 35.61503 | 30.84422 | 37971 ft | 465 kts | 355° |
| 2026-04-27 16:45 | 35.67944 | 30.84123 | 37969 ft | 465 kts | 355° |
| 2026-04-27 16:46 | 35.74395 | 30.83825 | 37975 ft | 465 kts | 355° |
| 2026-04-27 16:46 | 35.80862 | 30.83526 | 37977 ft | 466 kts | 355° |
| 2026-04-27 16:47 | 35.87330 | 30.83225 | 37973 ft | 466 kts | 355° |
| 2026-04-27 16:47 | 35.93844 | 30.82922 | 37975 ft | 466 kts | 355° |
| 2026-04-27 16:48 | 36.00264 | 30.82622 | 37977 ft | 465 kts | 355° |
| 2026-04-27 16:48 | 36.06738 | 30.82339 | 37972 ft | 465 kts | 355° |
| 2026-04-27 16:49 | 36.16437 | 30.82026 | 37987 ft | 466 kts | 355° |
| 2026-04-27 16:49 | 36.22948 | 30.81814 | 37983 ft | 466 kts | 355° |
| 2026-04-27 16:50 | 36.29401 | 30.81601 | 37994 ft | 466 kts | 355° |
| 2026-04-27 16:50 | 36.35895 | 30.81385 | 37990 ft | 466 kts | 355° |
| 2026-04-27 16:51 | 36.42361 | 30.81169 | 37989 ft | 466 kts | 356° |
| 2026-04-27 16:51 | 36.48837 | 30.80945 | 37989 ft | 466 kts | 356° |
| 2026-04-27 16:52 | 36.55349 | 30.80718 | 37991 ft | 466 kts | 356° |
| 2026-04-27 16:52 | 36.61798 | 30.80496 | 37990 ft | 466 kts | 356° |